sensor_id;sensor_type;location;lat;lon;timestamp;P1;durP1;ratioP1;P2;durP2;ratioP2
41468;SDS011;27206;47.032;15.484;2022-09-03T00:02:10;4.05;;;2.47;;
41468;SDS011;27206;47.032;15.484;2022-09-03T00:04:52;3.35;;;2.40;;
41468;SDS011;27206;47.032;15.484;2022-09-03T00:10:18;4.45;;;2.42;;
41468;SDS011;27206;47.032;15.484;2022-09-03T00:12:49;3.55;;;2.33;;
41468;SDS011;27206;47.032;15.484;2022-09-03T00:15:18;3.10;;;2.00;;
41468;SDS011;27206;47.032;15.484;2022-09-03T00:17:47;3.90;;;2.28;;
41468;SDS011;27206;47.032;15.484;2022-09-03T00:22:46;4.13;;;2.20;;
41468;SDS011;27206;47.032;15.484;2022-09-03T00:25:28;3.47;;;2.20;;
41468;SDS011;27206;47.032;15.484;2022-09-03T00:28:18;3.33;;;2.55;;
41468;SDS011;27206;47.032;15.484;2022-09-03T00:33:19;7.47;;;2.22;;
41468;SDS011;27206;47.032;15.484;2022-09-03T00:35:50;5.68;;;2.72;;
41468;SDS011;27206;47.032;15.484;2022-09-03T00:38:17;4.22;;;2.35;;
41468;SDS011;27206;47.032;15.484;2022-09-03T00:55:09;3.58;;;2.03;;
41468;SDS011;27206;47.032;15.484;2022-09-03T01:00:20;5.18;;;2.35;;
41468;SDS011;27206;47.032;15.484;2022-09-03T01:02:58;4.22;;;2.30;;
41468;SDS011;27206;47.032;15.484;2022-09-03T01:05:42;5.15;;;2.00;;
41468;SDS011;27206;47.032;15.484;2022-09-03T01:08:54;4.97;;;2.28;;
41468;SDS011;27206;47.032;15.484;2022-09-03T01:17:05;5.40;;;2.50;;
41468;SDS011;27206;47.032;15.484;2022-09-03T01:30:12;7.13;;;2.50;;
41468;SDS011;27206;47.032;15.484;2022-09-03T01:32:53;4.43;;;2.67;;
41468;SDS011;27206;47.032;15.484;2022-09-03T01:46:38;5.18;;;2.47;;
41468;SDS011;27206;47.032;15.484;2022-09-03T01:49:11;4.15;;;2.60;;
41468;SDS011;27206;47.032;15.484;2022-09-03T01:51:55;4.32;;;2.50;;
41468;SDS011;27206;47.032;15.484;2022-09-03T01:54:59;3.72;;;2.10;;
41468;SDS011;27206;47.032;15.484;2022-09-03T01:57:56;5.32;;;2.42;;
41468;SDS011;27206;47.032;15.484;2022-09-03T02:00:30;4.75;;;2.40;;
41468;SDS011;27206;47.032;15.484;2022-09-03T02:02:59;5.07;;;2.40;;
41468;SDS011;27206;47.032;15.484;2022-09-03T02:05:30;3.35;;;2.20;;
41468;SDS011;27206;47.032;15.484;2022-09-03T02:10:31;3.65;;;2.40;;
41468;SDS011;27206;47.032;15.484;2022-09-03T02:13:16;6.75;;;2.35;;
41468;SDS011;27206;47.032;15.484;2022-09-03T02:15:49;3.55;;;2.50;;
41468;SDS011;27206;47.032;15.484;2022-09-03T02:18:27;4.82;;;2.45;;
41468;SDS011;27206;47.032;15.484;2022-09-03T02:20:55;3.33;;;2.40;;
41468;SDS011;27206;47.032;15.484;2022-09-03T02:23:23;4.35;;;2.50;;
41468;SDS011;27206;47.032;15.484;2022-09-03T02:25:52;7.47;;;2.70;;
41468;SDS011;27206;47.032;15.484;2022-09-03T02:28:21;4.03;;;2.47;;
41468;SDS011;27206;47.032;15.484;2022-09-03T02:30:47;4.13;;;2.55;;
41468;SDS011;27206;47.032;15.484;2022-09-03T02:33:13;4.53;;;2.25;;
41468;SDS011;27206;47.032;15.484;2022-09-03T02:35:40;4.15;;;2.80;;
41468;SDS011;27206;47.032;15.484;2022-09-03T02:38:10;3.67;;;2.30;;
41468;SDS011;27206;47.032;15.484;2022-09-03T02:40:37;5.38;;;2.70;;
41468;SDS011;27206;47.032;15.484;2022-09-03T02:43:03;4.60;;;2.40;;
41468;SDS011;27206;47.032;15.484;2022-09-03T02:45:32;5.20;;;2.33;;
41468;SDS011;27206;47.032;15.484;2022-09-03T02:48:00;8.85;;;2.58;;
41468;SDS011;27206;47.032;15.484;2022-09-03T02:50:26;4.15;;;2.63;;
41468;SDS011;27206;47.032;15.484;2022-09-03T02:52:52;3.70;;;2.63;;
41468;SDS011;27206;47.032;15.484;2022-09-03T02:55:18;6.10;;;2.80;;
41468;SDS011;27206;47.032;15.484;2022-09-03T02:57:44;5.60;;;3.00;;
41468;SDS011;27206;47.032;15.484;2022-09-03T03:00:10;6.40;;;2.80;;
41468;SDS011;27206;47.032;15.484;2022-09-03T03:02:37;6.50;;;2.45;;
41468;SDS011;27206;47.032;15.484;2022-09-03T03:05:03;4.13;;;2.70;;
41468;SDS011;27206;47.032;15.484;2022-09-03T03:07:31;5.40;;;3.00;;
41468;SDS011;27206;47.032;15.484;2022-09-03T03:10:00;5.00;;;2.55;;
41468;SDS011;27206;47.032;15.484;2022-09-03T03:12:26;7.22;;;2.72;;
41468;SDS011;27206;47.032;15.484;2022-09-03T03:14:52;4.28;;;2.50;;
41468;SDS011;27206;47.032;15.484;2022-09-03T03:17:17;10.27;;;2.85;;
41468;SDS011;27206;47.032;15.484;2022-09-03T03:19:43;4.10;;;2.70;;
41468;SDS011;27206;47.032;15.484;2022-09-03T03:22:08;5.18;;;2.50;;
41468;SDS011;27206;47.032;15.484;2022-09-03T03:24:34;6.45;;;2.72;;
41468;SDS011;27206;47.032;15.484;2022-09-03T03:27:00;5.25;;;2.60;;
41468;SDS011;27206;47.032;15.484;2022-09-03T03:29:30;7.05;;;2.80;;
41468;SDS011;27206;47.032;15.484;2022-09-03T03:31:55;4.75;;;2.67;;
41468;SDS011;27206;47.032;15.484;2022-09-03T03:34:22;4.32;;;2.70;;
41468;SDS011;27206;47.032;15.484;2022-09-03T03:36:47;4.40;;;2.75;;
41468;SDS011;27206;47.032;15.484;2022-09-03T03:39:13;3.97;;;2.40;;
41468;SDS011;27206;47.032;15.484;2022-09-03T03:41:39;4.70;;;2.40;;
41468;SDS011;27206;47.032;15.484;2022-09-03T03:44:05;3.38;;;2.60;;
41468;SDS011;27206;47.032;15.484;2022-09-03T03:46:39;3.75;;;2.42;;
41468;SDS011;27206;47.032;15.484;2022-09-03T03:49:05;6.10;;;2.67;;
41468;SDS011;27206;47.032;15.484;2022-09-03T03:51:32;7.10;;;2.80;;
41468;SDS011;27206;47.032;15.484;2022-09-03T03:53:58;4.88;;;2.70;;
41468;SDS011;27206;47.032;15.484;2022-09-03T03:56:25;4.07;;;2.67;;
41468;SDS011;27206;47.032;15.484;2022-09-03T03:58:51;5.28;;;2.92;;
41468;SDS011;27206;47.032;15.484;2022-09-03T04:01:20;4.45;;;2.67;;
41468;SDS011;27206;47.032;15.484;2022-09-03T04:03:47;4.85;;;2.90;;
41468;SDS011;27206;47.032;15.484;2022-09-03T04:06:13;4.60;;;2.83;;
41468;SDS011;27206;47.032;15.484;2022-09-03T04:08:41;5.70;;;2.92;;
41468;SDS011;27206;47.032;15.484;2022-09-03T04:11:09;4.97;;;2.60;;
41468;SDS011;27206;47.032;15.484;2022-09-03T04:13:36;5.05;;;2.97;;
41468;SDS011;27206;47.032;15.484;2022-09-03T04:16:05;3.70;;;2.67;;
41468;SDS011;27206;47.032;15.484;2022-09-03T04:18:32;6.43;;;2.88;;
41468;SDS011;27206;47.032;15.484;2022-09-03T04:21:03;4.95;;;2.75;;
41468;SDS011;27206;47.032;15.484;2022-09-03T04:23:37;5.22;;;3.00;;
41468;SDS011;27206;47.032;15.484;2022-09-03T04:26:04;4.13;;;2.42;;
41468;SDS011;27206;47.032;15.484;2022-09-03T04:28:31;8.50;;;2.80;;
41468;SDS011;27206;47.032;15.484;2022-09-03T04:31:00;3.83;;;2.60;;
41468;SDS011;27206;47.032;15.484;2022-09-03T04:33:28;4.05;;;2.60;;
41468;SDS011;27206;47.032;15.484;2022-09-03T04:36:17;4.95;;;2.70;;
41468;SDS011;27206;47.032;15.484;2022-09-03T04:38:45;8.82;;;2.88;;
41468;SDS011;27206;47.032;15.484;2022-09-03T04:41:13;6.07;;;2.90;;
41468;SDS011;27206;47.032;15.484;2022-09-03T04:43:41;6.50;;;2.60;;
41468;SDS011;27206;47.032;15.484;2022-09-03T04:46:08;7.65;;;2.90;;
41468;SDS011;27206;47.032;15.484;2022-09-03T04:48:35;5.80;;;2.88;;
41468;SDS011;27206;47.032;15.484;2022-09-03T04:51:05;5.40;;;3.10;;
41468;SDS011;27206;47.032;15.484;2022-09-03T04:53:32;5.50;;;2.83;;
41468;SDS011;27206;47.032;15.484;2022-09-03T04:56:02;7.38;;;2.70;;
41468;SDS011;27206;47.032;15.484;2022-09-03T04:58:35;4.15;;;2.78;;
41468;SDS011;27206;47.032;15.484;2022-09-03T05:01:06;7.35;;;2.90;;
41468;SDS011;27206;47.032;15.484;2022-09-03T05:03:33;6.53;;;2.88;;
41468;SDS011;27206;47.032;15.484;2022-09-03T05:06:00;7.10;;;2.83;;
41468;SDS011;27206;47.032;15.484;2022-09-03T05:08:26;4.38;;;2.88;;
41468;SDS011;27206;47.032;15.484;2022-09-03T05:10:58;5.88;;;3.50;;
41468;SDS011;27206;47.032;15.484;2022-09-03T05:13:25;5.45;;;3.20;;
41468;SDS011;27206;47.032;15.484;2022-09-03T05:15:52;5.47;;;3.38;;
41468;SDS011;27206;47.032;15.484;2022-09-03T05:18:27;4.72;;;3.10;;
41468;SDS011;27206;47.032;15.484;2022-09-03T05:20:56;4.72;;;3.38;;
41468;SDS011;27206;47.032;15.484;2022-09-03T05:23:23;6.65;;;3.60;;
41468;SDS011;27206;47.032;15.484;2022-09-03T05:25:59;6.57;;;3.45;;
41468;SDS011;27206;47.032;15.484;2022-09-03T05:28:27;6.57;;;3.38;;
41468;SDS011;27206;47.032;15.484;2022-09-03T05:31:00;6.43;;;3.30;;
41468;SDS011;27206;47.032;15.484;2022-09-03T05:35:54;5.50;;;3.40;;
41468;SDS011;27206;47.032;15.484;2022-09-03T05:38:25;5.50;;;3.13;;
41468;SDS011;27206;47.032;15.484;2022-09-03T05:40:51;7.13;;;3.30;;
41468;SDS011;27206;47.032;15.484;2022-09-03T05:43:16;6.72;;;2.80;;
41468;SDS011;27206;47.032;15.484;2022-09-03T05:45:42;4.80;;;2.97;;
41468;SDS011;27206;47.032;15.484;2022-09-03T05:48:08;5.28;;;3.00;;
41468;SDS011;27206;47.032;15.484;2022-09-03T05:50:33;5.65;;;3.10;;
41468;SDS011;27206;47.032;15.484;2022-09-03T05:52:59;5.80;;;3.30;;
41468;SDS011;27206;47.032;15.484;2022-09-03T05:55:24;4.32;;;3.17;;
41468;SDS011;27206;47.032;15.484;2022-09-03T05:57:52;4.25;;;2.80;;
41468;SDS011;27206;47.032;15.484;2022-09-03T06:00:18;5.25;;;3.08;;
41468;SDS011;27206;47.032;15.484;2022-09-03T06:02:51;6.75;;;3.10;;
41468;SDS011;27206;47.032;15.484;2022-09-03T06:05:17;5.10;;;3.10;;
41468;SDS011;27206;47.032;15.484;2022-09-03T06:07:44;4.22;;;3.08;;
41468;SDS011;27206;47.032;15.484;2022-09-03T06:10:12;4.75;;;3.25;;
41468;SDS011;27206;47.032;15.484;2022-09-03T06:12:40;5.30;;;3.00;;
41468;SDS011;27206;47.032;15.484;2022-09-03T06:15:06;5.10;;;3.00;;
41468;SDS011;27206;47.032;15.484;2022-09-03T06:17:33;4.15;;;3.00;;
41468;SDS011;27206;47.032;15.484;2022-09-03T06:19:58;6.15;;;3.28;;
41468;SDS011;27206;47.032;15.484;2022-09-03T06:22:24;5.53;;;3.00;;
41468;SDS011;27206;47.032;15.484;2022-09-03T06:24:52;5.43;;;3.13;;
41468;SDS011;27206;47.032;15.484;2022-09-03T06:27:18;7.05;;;3.28;;
41468;SDS011;27206;47.032;15.484;2022-09-03T06:29:45;4.85;;;3.10;;
41468;SDS011;27206;47.032;15.484;2022-09-03T06:32:10;4.75;;;3.38;;
41468;SDS011;27206;47.032;15.484;2022-09-03T06:34:36;5.53;;;2.75;;
41468;SDS011;27206;47.032;15.484;2022-09-03T06:37:02;6.13;;;3.00;;
41468;SDS011;27206;47.032;15.484;2022-09-03T06:39:27;4.10;;;3.15;;
41468;SDS011;27206;47.032;15.484;2022-09-03T06:41:53;5.68;;;3.22;;
41468;SDS011;27206;47.032;15.484;2022-09-03T06:44:19;6.15;;;3.28;;
41468;SDS011;27206;47.032;15.484;2022-09-03T06:46:45;4.78;;;2.97;;
41468;SDS011;27206;47.032;15.484;2022-09-03T06:49:11;3.83;;;3.00;;
41468;SDS011;27206;47.032;15.484;2022-09-03T06:51:37;4.85;;;3.47;;
41468;SDS011;27206;47.032;15.484;2022-09-03T06:54:07;4.47;;;3.50;;
41468;SDS011;27206;47.032;15.484;2022-09-03T06:56:35;7.32;;;3.15;;
41468;SDS011;27206;47.032;15.484;2022-09-03T06:59:03;6.55;;;3.67;;
41468;SDS011;27206;47.032;15.484;2022-09-03T07:01:31;5.40;;;3.28;;
41468;SDS011;27206;47.032;15.484;2022-09-03T07:04:01;5.70;;;3.17;;
41468;SDS011;27206;47.032;15.484;2022-09-03T07:06:37;4.65;;;3.35;;
41468;SDS011;27206;47.032;15.484;2022-09-03T07:09:05;5.32;;;3.10;;
41468;SDS011;27206;47.032;15.484;2022-09-03T07:11:31;5.70;;;3.33;;
41468;SDS011;27206;47.032;15.484;2022-09-03T07:13:59;4.82;;;2.90;;
41468;SDS011;27206;47.032;15.484;2022-09-03T07:16:27;5.88;;;3.17;;
41468;SDS011;27206;47.032;15.484;2022-09-03T07:18:54;6.78;;;3.28;;
41468;SDS011;27206;47.032;15.484;2022-09-03T07:21:24;8.18;;;3.35;;
41468;SDS011;27206;47.032;15.484;2022-09-03T07:23:52;4.15;;;3.10;;
41468;SDS011;27206;47.032;15.484;2022-09-03T07:26:28;10.05;;;3.25;;
41468;SDS011;27206;47.032;15.484;2022-09-03T07:28:56;5.90;;;3.22;;
41468;SDS011;27206;47.032;15.484;2022-09-03T07:31:26;5.10;;;3.40;;
41468;SDS011;27206;47.032;15.484;2022-09-03T07:33:53;4.70;;;3.10;;
41468;SDS011;27206;47.032;15.484;2022-09-03T07:36:20;4.55;;;3.22;;
41468;SDS011;27206;47.032;15.484;2022-09-03T07:38:46;6.03;;;3.25;;
41468;SDS011;27206;47.032;15.484;2022-09-03T07:41:13;6.18;;;2.83;;
41468;SDS011;27206;47.032;15.484;2022-09-03T07:43:41;4.80;;;3.38;;
41468;SDS011;27206;47.032;15.484;2022-09-03T07:46:08;6.50;;;3.33;;
41468;SDS011;27206;47.032;15.484;2022-09-03T07:48:37;5.15;;;3.40;;
41468;SDS011;27206;47.032;15.484;2022-09-03T07:51:04;4.93;;;3.22;;
41468;SDS011;27206;47.032;15.484;2022-09-03T07:53:30;4.43;;;3.20;;
41468;SDS011;27206;47.032;15.484;2022-09-03T07:56:05;5.45;;;3.00;;
41468;SDS011;27206;47.032;15.484;2022-09-03T07:58:33;8.25;;;3.20;;
41468;SDS011;27206;47.032;15.484;2022-09-03T08:01:04;5.40;;;3.17;;
41468;SDS011;27206;47.032;15.484;2022-09-03T08:03:32;7.93;;;3.70;;
41468;SDS011;27206;47.032;15.484;2022-09-03T08:05:59;4.18;;;3.03;;
41468;SDS011;27206;47.032;15.484;2022-09-03T08:08:29;7.40;;;3.58;;
41468;SDS011;27206;47.032;15.484;2022-09-03T08:11:02;6.25;;;3.17;;
41468;SDS011;27206;47.032;15.484;2022-09-03T08:13:33;6.75;;;3.30;;
41468;SDS011;27206;47.032;15.484;2022-09-03T08:15:59;4.70;;;3.60;;
41468;SDS011;27206;47.032;15.484;2022-09-03T08:18:25;8.70;;;3.67;;
41468;SDS011;27206;47.032;15.484;2022-09-03T08:20:57;6.22;;;3.05;;
41468;SDS011;27206;47.032;15.484;2022-09-03T08:23:23;5.35;;;3.30;;
41468;SDS011;27206;47.032;15.484;2022-09-03T08:25:57;5.97;;;3.50;;
41468;SDS011;27206;47.032;15.484;2022-09-03T08:28:24;6.95;;;2.92;;
41468;SDS011;27206;47.032;15.484;2022-09-03T08:30:50;6.25;;;3.33;;
41468;SDS011;27206;47.032;15.484;2022-09-03T08:33:15;4.88;;;3.17;;
41468;SDS011;27206;47.032;15.484;2022-09-03T08:36:00;4.00;;;3.00;;
41468;SDS011;27206;47.032;15.484;2022-09-03T08:38:31;5.75;;;3.10;;
41468;SDS011;27206;47.032;15.484;2022-09-03T08:51:48;4.05;;;3.00;;
41468;SDS011;27206;47.032;15.484;2022-09-03T08:54:17;6.72;;;3.03;;
41468;SDS011;27206;47.032;15.484;2022-09-03T08:56:45;3.95;;;2.58;;
41468;SDS011;27206;47.032;15.484;2022-09-03T08:59:11;6.10;;;2.63;;
41468;SDS011;27206;47.032;15.484;2022-09-03T09:01:42;3.80;;;2.78;;
41468;SDS011;27206;47.032;15.484;2022-09-03T09:04:38;3.80;;;2.50;;
41468;SDS011;27206;47.032;15.484;2022-09-03T09:09:36;4.82;;;2.55;;
41468;SDS011;27206;47.032;15.484;2022-09-03T09:21:12;5.50;;;2.50;;
41468;SDS011;27206;47.032;15.484;2022-09-03T09:23:49;3.45;;;2.40;;
41468;SDS011;27206;47.032;15.484;2022-09-03T09:26:19;6.22;;;2.80;;
41468;SDS011;27206;47.032;15.484;2022-09-03T09:28:46;4.32;;;2.40;;
41468;SDS011;27206;47.032;15.484;2022-09-03T09:31:19;5.20;;;2.47;;
41468;SDS011;27206;47.032;15.484;2022-09-03T09:33:45;3.83;;;2.42;;
41468;SDS011;27206;47.032;15.484;2022-09-03T09:36:12;3.80;;;2.67;;
41468;SDS011;27206;47.032;15.484;2022-09-03T09:38:41;3.78;;;2.50;;
41468;SDS011;27206;47.032;15.484;2022-09-03T09:41:11;5.40;;;2.20;;
41468;SDS011;27206;47.032;15.484;2022-09-03T09:43:42;3.45;;;2.13;;
41468;SDS011;27206;47.032;15.484;2022-09-03T09:48:45;7.63;;;2.92;;
41468;SDS011;27206;47.032;15.484;2022-09-03T09:51:23;3.42;;;2.42;;
41468;SDS011;27206;47.032;15.484;2022-09-03T09:56:36;3.03;;;2.53;;
41468;SDS011;27206;47.032;15.484;2022-09-03T09:59:06;4.35;;;2.70;;
41468;SDS011;27206;47.032;15.484;2022-09-03T10:01:35;3.37;;;2.33;;
41468;SDS011;27206;47.032;15.484;2022-09-03T10:06:37;6.50;;;2.80;;
41468;SDS011;27206;47.032;15.484;2022-09-03T10:09:25;4.68;;;2.83;;
41468;SDS011;27206;47.032;15.484;2022-09-03T10:17:39;5.93;;;2.67;;
41468;SDS011;27206;47.032;15.484;2022-09-03T10:23:27;5.60;;;2.33;;
41468;SDS011;27206;47.032;15.484;2022-09-03T10:26:04;3.42;;;2.30;;
41468;SDS011;27206;47.032;15.484;2022-09-03T10:28:34;3.30;;;2.10;;
41468;SDS011;27206;47.032;15.484;2022-09-03T10:33:42;4.07;;;2.35;;
41468;SDS011;27206;47.032;15.484;2022-09-03T10:38:39;4.25;;;2.30;;
41468;SDS011;27206;47.032;15.484;2022-09-03T10:58:14;3.47;;;2.20;;
41468;SDS011;27206;47.032;15.484;2022-09-03T11:00:15;4.57;;;2.33;;
41468;SDS011;27206;47.032;15.484;2022-09-03T11:08:27;3.97;;;2.25;;
41468;SDS011;27206;47.032;15.484;2022-09-03T11:13:43;3.40;;;2.22;;
41468;SDS011;27206;47.032;15.484;2022-09-03T11:18:48;6.30;;;2.20;;
41468;SDS011;27206;47.032;15.484;2022-09-03T11:21:19;4.72;;;2.20;;
41468;SDS011;27206;47.032;15.484;2022-09-03T11:24:34;5.60;;;2.20;;
41468;SDS011;27206;47.032;15.484;2022-09-03T11:26:37;3.83;;;2.10;;
41468;SDS011;27206;47.032;15.484;2022-09-03T11:34:32;3.50;;;1.95;;
41468;SDS011;27206;47.032;15.484;2022-09-03T11:37:16;2.78;;;1.60;;
41468;SDS011;27206;47.032;15.484;2022-09-03T11:39:43;3.30;;;2.05;;
41468;SDS011;27206;47.032;15.484;2022-09-03T11:42:37;2.47;;;1.60;;
41468;SDS011;27206;47.032;15.484;2022-09-03T11:47:46;2.22;;;1.60;;
41468;SDS011;27206;47.032;15.484;2022-09-03T11:55:11;3.53;;;1.92;;
41468;SDS011;27206;47.032;15.484;2022-09-03T11:57:47;2.67;;;1.60;;
41468;SDS011;27206;47.032;15.484;2022-09-03T12:00:14;3.72;;;1.80;;
41468;SDS011;27206;47.032;15.484;2022-09-03T12:02:54;4.68;;;1.90;;
41468;SDS011;27206;47.032;15.484;2022-09-03T12:05:26;3.08;;;1.70;;
41468;SDS011;27206;47.032;15.484;2022-09-03T12:10:48;4.50;;;1.80;;
41468;SDS011;27206;47.032;15.484;2022-09-03T12:18:32;7.05;;;1.88;;
41468;SDS011;27206;47.032;15.484;2022-09-03T12:21:01;4.68;;;1.90;;
41468;SDS011;27206;47.032;15.484;2022-09-03T12:26:15;3.75;;;1.40;;
41468;SDS011;27206;47.032;15.484;2022-09-03T12:28:50;2.85;;;1.80;;
41468;SDS011;27206;47.032;15.484;2022-09-03T12:33:54;2.58;;;1.75;;
41468;SDS011;27206;47.032;15.484;2022-09-03T12:36:26;3.15;;;1.83;;
41468;SDS011;27206;47.032;15.484;2022-09-03T12:39:07;3.38;;;1.80;;
41468;SDS011;27206;47.032;15.484;2022-09-03T12:44:45;2.55;;;1.70;;
41468;SDS011;27206;47.032;15.484;2022-09-03T12:47:12;2.85;;;1.95;;
41468;SDS011;27206;47.032;15.484;2022-09-03T12:49:42;4.53;;;1.90;;
41468;SDS011;27206;47.032;15.484;2022-09-03T12:58:02;4.18;;;1.90;;
41468;SDS011;27206;47.032;15.484;2022-09-03T13:00:30;5.05;;;1.70;;
41468;SDS011;27206;47.032;15.484;2022-09-03T13:03:00;4.53;;;1.80;;
41468;SDS011;27206;47.032;15.484;2022-09-03T13:09:04;3.80;;;1.70;;
41468;SDS011;27206;47.032;15.484;2022-09-03T13:11:08;5.22;;;1.90;;
41468;SDS011;27206;47.032;15.484;2022-09-03T13:13:35;4.65;;;2.08;;
41468;SDS011;27206;47.032;15.484;2022-09-03T13:26:23;3.28;;;1.77;;
41468;SDS011;27206;47.032;15.484;2022-09-03T13:31:49;4.05;;;1.70;;
41468;SDS011;27206;47.032;15.484;2022-09-03T13:34:35;2.72;;;1.50;;
41468;SDS011;27206;47.032;15.484;2022-09-03T13:39:57;4.15;;;1.67;;
41468;SDS011;27206;47.032;15.484;2022-09-03T13:42:41;3.42;;;1.60;;
41468;SDS011;27206;47.032;15.484;2022-09-03T13:45:20;2.25;;;1.30;;
41468;SDS011;27206;47.032;15.484;2022-09-03T13:47:55;3.55;;;1.23;;
41468;SDS011;27206;47.032;15.484;2022-09-03T13:50:43;4.18;;;1.80;;
41468;SDS011;27206;47.032;15.484;2022-09-03T13:53:39;3.78;;;1.92;;
41468;SDS011;27206;47.032;15.484;2022-09-03T13:56:05;2.70;;;1.50;;
41468;SDS011;27206;47.032;15.484;2022-09-03T13:58:47;2.67;;;1.60;;
41468;SDS011;27206;47.032;15.484;2022-09-03T14:01:22;5.50;;;1.50;;
41468;SDS011;27206;47.032;15.484;2022-09-03T14:03:54;2.42;;;1.38;;
41468;SDS011;27206;47.032;15.484;2022-09-03T14:09:14;3.45;;;1.30;;
41468;SDS011;27206;47.032;15.484;2022-09-03T14:17:30;2.58;;;1.50;;
41468;SDS011;27206;47.032;15.484;2022-09-03T14:22:43;3.08;;;1.60;;
41468;SDS011;27206;47.032;15.484;2022-09-03T14:25:21;2.83;;;1.52;;
41468;SDS011;27206;47.032;15.484;2022-09-03T14:27:48;3.38;;;1.65;;
41468;SDS011;27206;47.032;15.484;2022-09-03T14:30:19;3.05;;;1.60;;
41468;SDS011;27206;47.032;15.484;2022-09-03T14:33:15;3.45;;;1.90;;
41468;SDS011;27206;47.032;15.484;2022-09-03T14:36:20;3.00;;;1.60;;
41468;SDS011;27206;47.032;15.484;2022-09-03T14:39:02;2.50;;;1.60;;
41468;SDS011;27206;47.032;15.484;2022-09-03T14:44:40;2.15;;;1.48;;
41468;SDS011;27206;47.032;15.484;2022-09-03T14:50:55;4.93;;;1.45;;
41468;SDS011;27206;47.032;15.484;2022-09-03T14:53:36;3.50;;;1.40;;
41468;SDS011;27206;47.032;15.484;2022-09-03T14:56:18;2.00;;;1.55;;
41468;SDS011;27206;47.032;15.484;2022-09-03T15:01:37;2.60;;;1.40;;
41468;SDS011;27206;47.032;15.484;2022-09-03T15:12:24;4.07;;;1.60;;
41468;SDS011;27206;47.032;15.484;2022-09-03T15:15:07;2.38;;;1.30;;
41468;SDS011;27206;47.032;15.484;2022-09-03T15:36:56;3.92;;;1.60;;
41468;SDS011;27206;47.032;15.484;2022-09-03T15:39:27;3.28;;;1.75;;
41468;SDS011;27206;47.032;15.484;2022-09-03T15:41:58;2.88;;;1.80;;
41468;SDS011;27206;47.032;15.484;2022-09-03T15:44:59;3.40;;;1.92;;
41468;SDS011;27206;47.032;15.484;2022-09-03T15:55:40;2.53;;;1.60;;
41468;SDS011;27206;47.032;15.484;2022-09-03T15:58:09;4.53;;;1.70;;
41468;SDS011;27206;47.032;15.484;2022-09-03T16:09:23;2.30;;;1.48;;
41468;SDS011;27206;47.032;15.484;2022-09-03T16:12:05;3.58;;;1.73;;
41468;SDS011;27206;47.032;15.484;2022-09-03T16:14:59;3.22;;;1.73;;
41468;SDS011;27206;47.032;15.484;2022-09-03T16:17:35;4.40;;;1.80;;
41468;SDS011;27206;47.032;15.484;2022-09-03T16:20:19;3.22;;;1.60;;
41468;SDS011;27206;47.032;15.484;2022-09-03T16:22:47;2.92;;;1.60;;
41468;SDS011;27206;47.032;15.484;2022-09-03T16:25:24;2.53;;;1.60;;
41468;SDS011;27206;47.032;15.484;2022-09-03T16:28:14;2.93;;;1.70;;
41468;SDS011;27206;47.032;15.484;2022-09-03T16:36:35;5.15;;;1.90;;
41468;SDS011;27206;47.032;15.484;2022-09-03T16:42:02;3.10;;;1.70;;
41468;SDS011;27206;47.032;15.484;2022-09-03T16:44:55;4.07;;;1.98;;
41468;SDS011;27206;47.032;15.484;2022-09-03T16:52:43;5.88;;;2.08;;
41468;SDS011;27206;47.032;15.484;2022-09-03T16:58:21;3.30;;;1.80;;
41468;SDS011;27206;47.032;15.484;2022-09-03T17:04:01;3.50;;;2.20;;
41468;SDS011;27206;47.032;15.484;2022-09-03T17:09:46;3.90;;;2.47;;
41468;SDS011;27206;47.032;15.484;2022-09-03T17:12:23;2.67;;;1.70;;
41468;SDS011;27206;47.032;15.484;2022-09-03T17:21:17;3.92;;;1.85;;
41468;SDS011;27206;47.032;15.484;2022-09-03T17:26:45;5.72;;;2.83;;
41468;SDS011;27206;47.032;15.484;2022-09-03T17:31:45;3.13;;;2.13;;
41468;SDS011;27206;47.032;15.484;2022-09-03T17:45:44;4.22;;;2.25;;
41468;SDS011;27206;47.032;15.484;2022-09-03T17:48:50;6.03;;;2.25;;
41468;SDS011;27206;47.032;15.484;2022-09-03T17:53:56;6.80;;;2.88;;
41468;SDS011;27206;47.032;15.484;2022-09-03T17:56:39;3.55;;;2.50;;
41468;SDS011;27206;47.032;15.484;2022-09-03T17:59:35;5.72;;;2.70;;
41468;SDS011;27206;47.032;15.484;2022-09-03T18:02:11;4.15;;;2.53;;
41468;SDS011;27206;47.032;15.484;2022-09-03T18:04:55;4.72;;;2.47;;
41468;SDS011;27206;47.032;15.484;2022-09-03T18:10:18;4.13;;;2.53;;
41468;SDS011;27206;47.032;15.484;2022-09-03T18:15:20;3.63;;;2.70;;
41468;SDS011;27206;47.032;15.484;2022-09-03T18:18:00;5.30;;;2.67;;
41468;SDS011;27206;47.032;15.484;2022-09-03T18:20:47;3.80;;;2.40;;
41468;SDS011;27206;47.032;15.484;2022-09-03T18:23:51;4.20;;;2.50;;
41468;SDS011;27206;47.032;15.484;2022-09-03T18:26:46;3.45;;;2.20;;
41468;SDS011;27206;47.032;15.484;2022-09-03T18:29:41;4.28;;;2.55;;
41468;SDS011;27206;47.032;15.484;2022-09-03T18:32:25;5.75;;;2.75;;
41468;SDS011;27206;47.032;15.484;2022-09-03T18:35:11;4.78;;;2.85;;
41468;SDS011;27206;47.032;15.484;2022-09-03T18:37:55;4.65;;;2.45;;
41468;SDS011;27206;47.032;15.484;2022-09-03T18:40:43;4.25;;;2.60;;
41468;SDS011;27206;47.032;15.484;2022-09-03T18:43:41;5.32;;;2.50;;
41468;SDS011;27206;47.032;15.484;2022-09-03T18:46:42;4.60;;;2.42;;
41468;SDS011;27206;47.032;15.484;2022-09-03T18:52:44;3.67;;;2.78;;
41468;SDS011;27206;47.032;15.484;2022-09-03T18:55:55;6.07;;;3.30;;
41468;SDS011;27206;47.032;15.484;2022-09-03T19:05:28;4.97;;;3.05;;
41468;SDS011;27206;47.032;15.484;2022-09-03T19:08:24;5.65;;;3.35;;
41468;SDS011;27206;47.032;15.484;2022-09-03T19:15:00;4.30;;;2.70;;
41468;SDS011;27206;47.032;15.484;2022-09-03T19:17:53;5.20;;;2.85;;
41468;SDS011;27206;47.032;15.484;2022-09-03T19:23:55;7.05;;;3.92;;
41468;SDS011;27206;47.032;15.484;2022-09-03T19:29:36;3.30;;;2.50;;
41468;SDS011;27206;47.032;15.484;2022-09-03T19:32:35;7.10;;;5.72;;
41468;SDS011;27206;47.032;15.484;2022-09-03T19:44:25;5.50;;;3.10;;
41468;SDS011;27206;47.032;15.484;2022-09-03T19:47:47;4.47;;;3.05;;
41468;SDS011;27206;47.032;15.484;2022-09-03T19:51:04;7.63;;;3.15;;
41468;SDS011;27206;47.032;15.484;2022-09-03T19:53:57;4.07;;;2.92;;
41468;SDS011;27206;47.032;15.484;2022-09-03T19:56:43;6.05;;;3.45;;
41468;SDS011;27206;47.032;15.484;2022-09-03T19:59:32;5.05;;;3.38;;
41468;SDS011;27206;47.032;15.484;2022-09-03T20:02:20;6.50;;;2.72;;
41468;SDS011;27206;47.032;15.484;2022-09-03T20:05:06;4.65;;;3.20;;
41468;SDS011;27206;47.032;15.484;2022-09-03T20:07:54;4.40;;;2.97;;
41468;SDS011;27206;47.032;15.484;2022-09-03T20:10:40;4.80;;;3.15;;
41468;SDS011;27206;47.032;15.484;2022-09-03T20:13:11;4.93;;;2.70;;
41468;SDS011;27206;47.032;15.484;2022-09-03T20:21:34;8.50;;;3.00;;
41468;SDS011;27206;47.032;15.484;2022-09-03T20:24:31;5.45;;;3.03;;
41468;SDS011;27206;47.032;15.484;2022-09-03T20:30:20;3.90;;;2.85;;
41468;SDS011;27206;47.032;15.484;2022-09-03T20:52:35;4.30;;;3.10;;
41468;SDS011;27206;47.032;15.484;2022-09-03T20:55:18;4.78;;;3.17;;
41468;SDS011;27206;47.032;15.484;2022-09-03T20:58:04;4.30;;;2.80;;
41468;SDS011;27206;47.032;15.484;2022-09-03T21:03:21;4.68;;;2.97;;
41468;SDS011;27206;47.032;15.484;2022-09-03T21:08:43;9.05;;;3.22;;
41468;SDS011;27206;47.032;15.484;2022-09-03T21:11:27;5.10;;;3.50;;
41468;SDS011;27206;47.032;15.484;2022-09-03T21:14:20;4.85;;;3.42;;
41468;SDS011;27206;47.032;15.484;2022-09-03T21:16:59;4.32;;;3.08;;
41468;SDS011;27206;47.032;15.484;2022-09-03T21:24:51;3.38;;;2.50;;